sensor_id;sensor_type;location;lat;lon;timestamp;P1;durP1;ratioP1;P2;durP2;ratioP2
17153;SDS011;8692;52.164;7.558;2022-10-16T00:01:51;3.27;;;2.73;;
17153;SDS011;8692;52.164;7.558;2022-10-16T00:04:21;7.63;;;3.03;;
17153;SDS011;8692;52.164;7.558;2022-10-16T00:06:51;3.87;;;3.27;;
17153;SDS011;8692;52.164;7.558;2022-10-16T00:09:22;5.73;;;3.17;;
17153;SDS011;8692;52.164;7.558;2022-10-16T00:11:50;4.20;;;3.13;;
17153;SDS011;8692;52.164;7.558;2022-10-16T00:14:25;5.73;;;3.87;;
17153;SDS011;8692;52.164;7.558;2022-10-16T00:16:55;3.53;;;3.17;;
17153;SDS011;8692;52.164;7.558;2022-10-16T00:19:25;4.97;;;3.17;;
17153;SDS011;8692;52.164;7.558;2022-10-16T00:21:56;6.43;;;3.00;;
17153;SDS011;8692;52.164;7.558;2022-10-16T00:24:24;5.43;;;3.27;;
17153;SDS011;8692;52.164;7.558;2022-10-16T00:26:52;5.63;;;3.80;;
17153;SDS011;8692;52.164;7.558;2022-10-16T00:29:22;5.47;;;3.33;;
17153;SDS011;8692;52.164;7.558;2022-10-16T00:31:54;4.43;;;3.87;;
17153;SDS011;8692;52.164;7.558;2022-10-16T00:34:22;6.30;;;3.93;;
17153;SDS011;8692;52.164;7.558;2022-10-16T00:36:50;7.27;;;4.40;;
17153;SDS011;8692;52.164;7.558;2022-10-16T00:39:18;4.97;;;4.30;;
17153;SDS011;8692;52.164;7.558;2022-10-16T00:41:49;6.90;;;4.70;;
17153;SDS011;8692;52.164;7.558;2022-10-16T00:47:15;6.83;;;4.70;;
17153;SDS011;8692;52.164;7.558;2022-10-16T00:49:52;8.97;;;6.23;;
17153;SDS011;8692;52.164;7.558;2022-10-16T00:52:23;8.67;;;5.50;;
17153;SDS011;8692;52.164;7.558;2022-10-16T00:54:52;7.53;;;5.67;;
17153;SDS011;8692;52.164;7.558;2022-10-16T00:57:21;7.40;;;6.50;;
17153;SDS011;8692;52.164;7.558;2022-10-16T00:59:50;8.47;;;6.17;;
17153;SDS011;8692;52.164;7.558;2022-10-16T01:02:20;9.83;;;6.57;;
17153;SDS011;8692;52.164;7.558;2022-10-16T01:04:50;6.97;;;6.10;;
17153;SDS011;8692;52.164;7.558;2022-10-16T01:07:23;6.83;;;5.83;;
17153;SDS011;8692;52.164;7.558;2022-10-16T01:10:03;10.83;;;6.23;;
17153;SDS011;8692;52.164;7.558;2022-10-16T01:12:39;8.80;;;6.50;;
17153;SDS011;8692;52.164;7.558;2022-10-16T01:15:14;9.10;;;7.10;;
17153;SDS011;8692;52.164;7.558;2022-10-16T01:17:51;10.13;;;6.97;;
17153;SDS011;8692;52.164;7.558;2022-10-16T01:20:27;9.90;;;7.90;;
17153;SDS011;8692;52.164;7.558;2022-10-16T01:23:05;8.87;;;7.87;;
17153;SDS011;8692;52.164;7.558;2022-10-16T01:25:52;8.07;;;7.07;;
17153;SDS011;8692;52.164;7.558;2022-10-16T01:28:32;8.50;;;7.60;;
17153;SDS011;8692;52.164;7.558;2022-10-16T01:31:06;9.03;;;7.60;;
17153;SDS011;8692;52.164;7.558;2022-10-16T01:33:38;7.80;;;6.97;;
17153;SDS011;8692;52.164;7.558;2022-10-16T01:36:10;9.70;;;8.30;;
17153;SDS011;8692;52.164;7.558;2022-10-16T01:38:42;10.90;;;8.20;;
17153;SDS011;8692;52.164;7.558;2022-10-16T01:41:16;9.93;;;7.90;;
17153;SDS011;8692;52.164;7.558;2022-10-16T01:43:51;13.13;;;8.63;;
17153;SDS011;8692;52.164;7.558;2022-10-16T01:46:27;11.47;;;7.30;;
17153;SDS011;8692;52.164;7.558;2022-10-16T01:49:00;12.07;;;8.73;;
17153;SDS011;8692;52.164;7.558;2022-10-16T01:51:32;12.37;;;9.23;;
17153;SDS011;8692;52.164;7.558;2022-10-16T01:54:02;8.87;;;7.70;;
17153;SDS011;8692;52.164;7.558;2022-10-16T01:56:34;10.27;;;8.20;;
17153;SDS011;8692;52.164;7.558;2022-10-16T01:59:06;9.50;;;7.57;;
17153;SDS011;8692;52.164;7.558;2022-10-16T02:01:38;9.63;;;8.63;;
17153;SDS011;8692;52.164;7.558;2022-10-16T02:04:11;10.20;;;9.10;;
17153;SDS011;8692;52.164;7.558;2022-10-16T02:06:43;15.53;;;8.20;;
17153;SDS011;8692;52.164;7.558;2022-10-16T02:09:11;13.17;;;8.57;;
17153;SDS011;8692;52.164;7.558;2022-10-16T02:11:42;7.80;;;7.10;;
17153;SDS011;8692;52.164;7.558;2022-10-16T02:14:11;9.17;;;7.77;;
17153;SDS011;8692;52.164;7.558;2022-10-16T02:16:43;8.60;;;7.73;;
17153;SDS011;8692;52.164;7.558;2022-10-16T02:19:14;9.97;;;8.03;;
17153;SDS011;8692;52.164;7.558;2022-10-16T02:21:48;11.37;;;8.73;;
17153;SDS011;8692;52.164;7.558;2022-10-16T02:24:22;9.07;;;8.00;;
17153;SDS011;8692;52.164;7.558;2022-10-16T02:26:59;10.20;;;8.07;;
17153;SDS011;8692;52.164;7.558;2022-10-16T02:29:36;8.43;;;7.43;;
17153;SDS011;8692;52.164;7.558;2022-10-16T02:32:10;9.93;;;7.73;;
17153;SDS011;8692;52.164;7.558;2022-10-16T02:34:42;8.30;;;7.50;;
17153;SDS011;8692;52.164;7.558;2022-10-16T02:37:12;8.33;;;7.30;;
17153;SDS011;8692;52.164;7.558;2022-10-16T02:39:40;8.10;;;7.17;;
17153;SDS011;8692;52.164;7.558;2022-10-16T02:42:11;7.67;;;6.87;;
17153;SDS011;8692;52.164;7.558;2022-10-16T02:44:41;10.20;;;8.03;;
17153;SDS011;8692;52.164;7.558;2022-10-16T02:47:10;10.57;;;8.10;;
17153;SDS011;8692;52.164;7.558;2022-10-16T02:49:41;10.37;;;7.97;;
17153;SDS011;8692;52.164;7.558;2022-10-16T02:52:11;8.63;;;7.77;;
17153;SDS011;8692;52.164;7.558;2022-10-16T02:54:39;10.70;;;7.70;;
17153;SDS011;8692;52.164;7.558;2022-10-16T02:57:07;9.40;;;7.63;;
17153;SDS011;8692;52.164;7.558;2022-10-16T02:59:35;11.73;;;7.33;;
17153;SDS011;8692;52.164;7.558;2022-10-16T03:02:05;11.47;;;8.10;;
17153;SDS011;8692;52.164;7.558;2022-10-16T03:04:33;14.80;;;8.17;;
17153;SDS011;8692;52.164;7.558;2022-10-16T03:07:02;13.10;;;8.20;;
17153;SDS011;8692;52.164;7.558;2022-10-16T03:09:32;11.73;;;7.67;;
17153;SDS011;8692;52.164;7.558;2022-10-16T03:12:00;9.63;;;8.50;;
17153;SDS011;8692;52.164;7.558;2022-10-16T03:14:31;7.27;;;6.57;;
17153;SDS011;8692;52.164;7.558;2022-10-16T03:16:59;11.40;;;8.03;;
17153;SDS011;8692;52.164;7.558;2022-10-16T03:19:28;8.90;;;7.20;;
17153;SDS011;8692;52.164;7.558;2022-10-16T03:21:56;8.57;;;7.37;;
17153;SDS011;8692;52.164;7.558;2022-10-16T03:24:25;10.67;;;7.43;;
17153;SDS011;8692;52.164;7.558;2022-10-16T03:26:53;7.30;;;6.50;;
17153;SDS011;8692;52.164;7.558;2022-10-16T03:29:21;10.43;;;7.70;;
17153;SDS011;8692;52.164;7.558;2022-10-16T03:31:49;8.40;;;6.37;;
17153;SDS011;8692;52.164;7.558;2022-10-16T03:34:19;7.50;;;6.50;;
17153;SDS011;8692;52.164;7.558;2022-10-16T03:36:49;11.43;;;7.30;;
17153;SDS011;8692;52.164;7.558;2022-10-16T03:39:17;10.00;;;6.30;;
17153;SDS011;8692;52.164;7.558;2022-10-16T03:41:46;8.40;;;6.97;;
17153;SDS011;8692;52.164;7.558;2022-10-16T03:44:14;7.33;;;6.37;;
17153;SDS011;8692;52.164;7.558;2022-10-16T03:46:42;9.43;;;6.53;;
17153;SDS011;8692;52.164;7.558;2022-10-16T03:49:11;8.00;;;6.67;;
17153;SDS011;8692;52.164;7.558;2022-10-16T03:51:41;8.03;;;6.53;;
17153;SDS011;8692;52.164;7.558;2022-10-16T03:54:12;9.13;;;6.23;;
17153;SDS011;8692;52.164;7.558;2022-10-16T03:56:41;9.17;;;6.40;;
17153;SDS011;8692;52.164;7.558;2022-10-16T03:59:09;9.67;;;5.70;;
17153;SDS011;8692;52.164;7.558;2022-10-16T04:01:39;7.93;;;6.07;;
17153;SDS011;8692;52.164;7.558;2022-10-16T04:04:07;6.57;;;5.97;;
17153;SDS011;8692;52.164;7.558;2022-10-16T04:06:35;9.47;;;5.77;;
17153;SDS011;8692;52.164;7.558;2022-10-16T04:09:03;6.23;;;5.27;;
17153;SDS011;8692;52.164;7.558;2022-10-16T04:11:35;8.53;;;6.17;;
17153;SDS011;8692;52.164;7.558;2022-10-16T04:14:03;8.60;;;5.73;;
17153;SDS011;8692;52.164;7.558;2022-10-16T04:16:31;6.97;;;6.23;;
17153;SDS011;8692;52.164;7.558;2022-10-16T04:18:59;6.83;;;5.43;;
17153;SDS011;8692;52.164;7.558;2022-10-16T04:21:28;6.57;;;5.53;;
17153;SDS011;8692;52.164;7.558;2022-10-16T04:23:56;9.60;;;6.00;;
17153;SDS011;8692;52.164;7.558;2022-10-16T04:26:24;6.83;;;5.30;;
17153;SDS011;8692;52.164;7.558;2022-10-16T04:28:56;6.43;;;4.93;;
17153;SDS011;8692;52.164;7.558;2022-10-16T04:31:24;7.67;;;4.87;;
17153;SDS011;8692;52.164;7.558;2022-10-16T04:33:54;6.17;;;5.40;;
17153;SDS011;8692;52.164;7.558;2022-10-16T04:36:22;5.00;;;4.53;;
17153;SDS011;8692;52.164;7.558;2022-10-16T04:38:54;7.17;;;5.20;;
17153;SDS011;8692;52.164;7.558;2022-10-16T04:41:25;5.83;;;4.50;;
17153;SDS011;8692;52.164;7.558;2022-10-16T04:43:56;6.23;;;4.33;;
17153;SDS011;8692;52.164;7.558;2022-10-16T04:46:24;5.20;;;4.30;;
17153;SDS011;8692;52.164;7.558;2022-10-16T04:48:52;4.97;;;3.97;;
17153;SDS011;8692;52.164;7.558;2022-10-16T04:51:21;5.20;;;4.43;;
17153;SDS011;8692;52.164;7.558;2022-10-16T04:53:49;6.70;;;4.40;;
17153;SDS011;8692;52.164;7.558;2022-10-16T04:56:17;5.27;;;3.50;;
17153;SDS011;8692;52.164;7.558;2022-10-16T04:58:45;6.93;;;4.00;;
17153;SDS011;8692;52.164;7.558;2022-10-16T05:01:15;4.30;;;3.90;;
17153;SDS011;8692;52.164;7.558;2022-10-16T05:03:43;5.07;;;4.13;;
17153;SDS011;8692;52.164;7.558;2022-10-16T05:06:13;4.07;;;3.27;;
17153;SDS011;8692;52.164;7.558;2022-10-16T05:08:41;5.87;;;3.47;;
17153;SDS011;8692;52.164;7.558;2022-10-16T05:11:09;3.97;;;3.27;;
17153;SDS011;8692;52.164;7.558;2022-10-16T05:13:37;6.00;;;4.10;;
17153;SDS011;8692;52.164;7.558;2022-10-16T05:16:06;7.27;;;3.60;;
17153;SDS011;8692;52.164;7.558;2022-10-16T05:18:37;4.40;;;3.73;;
17153;SDS011;8692;52.164;7.558;2022-10-16T05:21:06;3.27;;;2.97;;
17153;SDS011;8692;52.164;7.558;2022-10-16T05:23:34;4.27;;;3.50;;
17153;SDS011;8692;52.164;7.558;2022-10-16T05:26:02;3.17;;;2.90;;
17153;SDS011;8692;52.164;7.558;2022-10-16T05:28:30;3.43;;;2.90;;
17153;SDS011;8692;52.164;7.558;2022-10-16T05:31:03;4.43;;;3.50;;
17153;SDS011;8692;52.164;7.558;2022-10-16T05:33:33;3.70;;;3.07;;
17153;SDS011;8692;52.164;7.558;2022-10-16T05:36:07;3.17;;;2.90;;
17153;SDS011;8692;52.164;7.558;2022-10-16T05:38:36;3.90;;;3.23;;
17153;SDS011;8692;52.164;7.558;2022-10-16T05:41:05;3.77;;;3.43;;
17153;SDS011;8692;52.164;7.558;2022-10-16T05:43:35;3.50;;;3.07;;
17153;SDS011;8692;52.164;7.558;2022-10-16T05:46:04;4.37;;;2.70;;
17153;SDS011;8692;52.164;7.558;2022-10-16T05:48:35;6.17;;;3.80;;
17153;SDS011;8692;52.164;7.558;2022-10-16T05:51:07;3.27;;;2.97;;
17153;SDS011;8692;52.164;7.558;2022-10-16T05:53:40;3.40;;;3.13;;
17153;SDS011;8692;52.164;7.558;2022-10-16T05:56:10;3.70;;;3.40;;
17153;SDS011;8692;52.164;7.558;2022-10-16T05:58:41;6.00;;;3.50;;
17153;SDS011;8692;52.164;7.558;2022-10-16T06:01:11;5.27;;;3.53;;
17153;SDS011;8692;52.164;7.558;2022-10-16T06:03:40;4.73;;;3.10;;
17153;SDS011;8692;52.164;7.558;2022-10-16T06:06:10;5.70;;;3.10;;
17153;SDS011;8692;52.164;7.558;2022-10-16T06:08:39;3.47;;;3.00;;
17153;SDS011;8692;52.164;7.558;2022-10-16T06:11:09;3.40;;;3.10;;
17153;SDS011;8692;52.164;7.558;2022-10-16T06:13:41;4.80;;;3.33;;
17153;SDS011;8692;52.164;7.558;2022-10-16T06:16:12;3.50;;;3.20;;
17153;SDS011;8692;52.164;7.558;2022-10-16T06:18:42;5.53;;;3.53;;
17153;SDS011;8692;52.164;7.558;2022-10-16T06:21:16;5.37;;;3.50;;
17153;SDS011;8692;52.164;7.558;2022-10-16T06:23:45;3.40;;;3.00;;
17153;SDS011;8692;52.164;7.558;2022-10-16T06:26:15;2.83;;;2.63;;
17153;SDS011;8692;52.164;7.558;2022-10-16T06:28:47;4.73;;;3.23;;
17153;SDS011;8692;52.164;7.558;2022-10-16T06:31:19;3.40;;;3.10;;
17153;SDS011;8692;52.164;7.558;2022-10-16T06:33:50;8.10;;;3.10;;
17153;SDS011;8692;52.164;7.558;2022-10-16T06:36:22;7.27;;;3.37;;
17153;SDS011;8692;52.164;7.558;2022-10-16T06:38:51;4.30;;;3.07;;
17153;SDS011;8692;52.164;7.558;2022-10-16T06:41:22;3.20;;;2.90;;
17153;SDS011;8692;52.164;7.558;2022-10-16T06:43:50;3.77;;;2.83;;
17153;SDS011;8692;52.164;7.558;2022-10-16T06:46:20;3.83;;;2.80;;
17153;SDS011;8692;52.164;7.558;2022-10-16T06:48:49;3.77;;;2.73;;
17153;SDS011;8692;52.164;7.558;2022-10-16T06:51:18;5.27;;;3.37;;
17153;SDS011;8692;52.164;7.558;2022-10-16T06:53:49;6.27;;;2.93;;
17153;SDS011;8692;52.164;7.558;2022-10-16T06:56:33;4.00;;;2.90;;
17153;SDS011;8692;52.164;7.558;2022-10-16T06:59:02;2.93;;;2.73;;
17153;SDS011;8692;52.164;7.558;2022-10-16T07:01:31;3.83;;;2.97;;
17153;SDS011;8692;52.164;7.558;2022-10-16T07:04:02;8.00;;;3.07;;
17153;SDS011;8692;52.164;7.558;2022-10-16T07:06:31;3.40;;;2.90;;
17153;SDS011;8692;52.164;7.558;2022-10-16T07:09:03;2.93;;;2.57;;
17153;SDS011;8692;52.164;7.558;2022-10-16T07:11:36;3.53;;;2.73;;
17153;SDS011;8692;52.164;7.558;2022-10-16T07:14:10;4.90;;;2.83;;
17153;SDS011;8692;52.164;7.558;2022-10-16T07:16:42;3.93;;;2.80;;
17153;SDS011;8692;52.164;7.558;2022-10-16T07:19:10;4.43;;;3.47;;
17153;SDS011;8692;52.164;7.558;2022-10-16T07:21:41;4.60;;;3.17;;
17153;SDS011;8692;52.164;7.558;2022-10-16T07:24:12;5.27;;;3.53;;
17153;SDS011;8692;52.164;7.558;2022-10-16T07:26:41;6.40;;;3.83;;
17153;SDS011;8692;52.164;7.558;2022-10-16T07:29:11;7.57;;;4.40;;
17153;SDS011;8692;52.164;7.558;2022-10-16T07:31:41;4.33;;;3.37;;
17153;SDS011;8692;52.164;7.558;2022-10-16T07:34:11;4.23;;;3.10;;
17153;SDS011;8692;52.164;7.558;2022-10-16T07:36:41;3.43;;;2.73;;
17153;SDS011;8692;52.164;7.558;2022-10-16T07:39:13;8.87;;;3.10;;
17153;SDS011;8692;52.164;7.558;2022-10-16T07:41:41;5.03;;;3.07;;
17153;SDS011;8692;52.164;7.558;2022-10-16T07:44:09;5.00;;;3.13;;
17153;SDS011;8692;52.164;7.558;2022-10-16T07:46:38;4.43;;;3.00;;
17153;SDS011;8692;52.164;7.558;2022-10-16T07:49:06;3.13;;;2.60;;
17153;SDS011;8692;52.164;7.558;2022-10-16T07:51:36;3.23;;;2.37;;
17153;SDS011;8692;52.164;7.558;2022-10-16T07:54:05;4.33;;;2.33;;
17153;SDS011;8692;52.164;7.558;2022-10-16T07:56:34;3.23;;;2.33;;
17153;SDS011;8692;52.164;7.558;2022-10-16T07:59:10;4.37;;;2.50;;
17153;SDS011;8692;52.164;7.558;2022-10-16T08:01:40;3.20;;;2.30;;
17153;SDS011;8692;52.164;7.558;2022-10-16T08:04:09;3.73;;;2.17;;
17153;SDS011;8692;52.164;7.558;2022-10-16T08:06:39;2.97;;;2.40;;
17153;SDS011;8692;52.164;7.558;2022-10-16T08:09:08;5.13;;;2.47;;
17153;SDS011;8692;52.164;7.558;2022-10-16T08:11:38;2.93;;;2.30;;
17153;SDS011;8692;52.164;7.558;2022-10-16T08:14:06;5.27;;;2.77;;
17153;SDS011;8692;52.164;7.558;2022-10-16T08:16:37;5.30;;;2.90;;
17153;SDS011;8692;52.164;7.558;2022-10-16T08:19:05;6.00;;;2.43;;
17153;SDS011;8692;52.164;7.558;2022-10-16T08:21:35;6.37;;;2.53;;
17153;SDS011;8692;52.164;7.558;2022-10-16T08:24:04;3.70;;;1.70;;
17153;SDS011;8692;52.164;7.558;2022-10-16T08:26:32;3.87;;;2.20;;
17153;SDS011;8692;52.164;7.558;2022-10-16T08:29:01;3.37;;;1.93;;
17153;SDS011;8692;52.164;7.558;2022-10-16T08:31:30;4.93;;;2.23;;
17153;SDS011;8692;52.164;7.558;2022-10-16T08:33:58;5.43;;;2.17;;
17153;SDS011;8692;52.164;7.558;2022-10-16T08:36:28;5.97;;;2.30;;
17153;SDS011;8692;52.164;7.558;2022-10-16T08:38:56;4.17;;;1.80;;
17153;SDS011;8692;52.164;7.558;2022-10-16T08:41:41;4.60;;;1.87;;
17153;SDS011;8692;52.164;7.558;2022-10-16T08:47:33;2.80;;;1.73;;
17153;SDS011;8692;52.164;7.558;2022-10-16T08:50:10;5.30;;;2.00;;
17153;SDS011;8692;52.164;7.558;2022-10-16T08:52:41;4.93;;;1.73;;
17153;SDS011;8692;52.164;7.558;2022-10-16T08:55:19;4.10;;;1.87;;
17153;SDS011;8692;52.164;7.558;2022-10-16T08:57:58;6.47;;;1.83;;
17153;SDS011;8692;52.164;7.558;2022-10-16T09:00:29;4.03;;;1.60;;
17153;SDS011;8692;52.164;7.558;2022-10-16T09:03:03;3.57;;;1.50;;
17153;SDS011;8692;52.164;7.558;2022-10-16T09:05:45;5.07;;;1.70;;
17153;SDS011;8692;52.164;7.558;2022-10-16T09:08:27;4.30;;;1.70;;
17153;SDS011;8692;52.164;7.558;2022-10-16T09:11:03;4.20;;;1.67;;
17153;SDS011;8692;52.164;7.558;2022-10-16T09:13:43;4.10;;;1.67;;
17153;SDS011;8692;52.164;7.558;2022-10-16T09:16:22;4.60;;;1.40;;
17153;SDS011;8692;52.164;7.558;2022-10-16T09:18:58;3.53;;;1.40;;
17153;SDS011;8692;52.164;7.558;2022-10-16T09:21:32;4.17;;;1.20;;
17153;SDS011;8692;52.164;7.558;2022-10-16T09:24:08;4.00;;;1.50;;
17153;SDS011;8692;52.164;7.558;2022-10-16T09:26:41;3.40;;;1.37;;
17153;SDS011;8692;52.164;7.558;2022-10-16T09:29:10;3.73;;;1.23;;
17153;SDS011;8692;52.164;7.558;2022-10-16T09:31:41;2.33;;;1.13;;
17153;SDS011;8692;52.164;7.558;2022-10-16T09:34:13;2.90;;;1.10;;
17153;SDS011;8692;52.164;7.558;2022-10-16T09:36:48;1.80;;;0.90;;
17153;SDS011;8692;52.164;7.558;2022-10-16T09:39:17;7.47;;;1.50;;
17153;SDS011;8692;52.164;7.558;2022-10-16T09:41:47;5.73;;;1.07;;
17153;SDS011;8692;52.164;7.558;2022-10-16T09:44:19;5.20;;;1.70;;
17153;SDS011;8692;52.164;7.558;2022-10-16T09:47:01;5.13;;;1.67;;
17153;SDS011;8692;52.164;7.558;2022-10-16T09:49:32;2.43;;;1.10;;
17153;SDS011;8692;52.164;7.558;2022-10-16T09:52:03;4.43;;;1.33;;
17153;SDS011;8692;52.164;7.558;2022-10-16T09:54:32;3.50;;;1.23;;
17153;SDS011;8692;52.164;7.558;2022-10-16T09:57:04;4.63;;;1.27;;
17153;SDS011;8692;52.164;7.558;2022-10-16T09:59:33;5.83;;;1.30;;
17153;SDS011;8692;52.164;7.558;2022-10-16T10:02:04;8.20;;;1.53;;
17153;SDS011;8692;52.164;7.558;2022-10-16T10:04:42;4.50;;;2.13;;
17153;SDS011;8692;52.164;7.558;2022-10-16T10:07:19;4.33;;;1.53;;
17153;SDS011;8692;52.164;7.558;2022-10-16T10:09:52;4.90;;;1.10;;
17153;SDS011;8692;52.164;7.558;2022-10-16T10:12:25;2.80;;;1.33;;
17153;SDS011;8692;52.164;7.558;2022-10-16T10:14:55;3.97;;;1.33;;
17153;SDS011;8692;52.164;7.558;2022-10-16T10:17:27;7.30;;;1.50;;
17153;SDS011;8692;52.164;7.558;2022-10-16T10:19:58;4.73;;;1.00;;
17153;SDS011;8692;52.164;7.558;2022-10-16T10:22:31;3.87;;;1.23;;
17153;SDS011;8692;52.164;7.558;2022-10-16T10:25:15;6.00;;;1.50;;
17153;SDS011;8692;52.164;7.558;2022-10-16T10:27:58;3.17;;;1.57;;
17153;SDS011;8692;52.164;7.558;2022-10-16T10:30:37;5.20;;;1.90;;
17153;SDS011;8692;52.164;7.558;2022-10-16T10:33:17;4.20;;;2.07;;
17153;SDS011;8692;52.164;7.558;2022-10-16T10:35:53;3.00;;;1.70;;
17153;SDS011;8692;52.164;7.558;2022-10-16T10:38:35;4.77;;;1.73;;
17153;SDS011;8692;52.164;7.558;2022-10-16T10:41:12;4.10;;;1.90;;
17153;SDS011;8692;52.164;7.558;2022-10-16T10:43:56;3.67;;;2.07;;
17153;SDS011;8692;52.164;7.558;2022-10-16T10:46:35;4.37;;;2.70;;
17153;SDS011;8692;52.164;7.558;2022-10-16T10:49:26;4.37;;;2.73;;
17153;SDS011;8692;52.164;7.558;2022-10-16T10:52:10;5.40;;;2.63;;
17153;SDS011;8692;52.164;7.558;2022-10-16T10:54:51;4.90;;;2.70;;
17153;SDS011;8692;52.164;7.558;2022-10-16T10:57:29;4.87;;;2.70;;
17153;SDS011;8692;52.164;7.558;2022-10-16T11:00:13;4.63;;;2.63;;
17153;SDS011;8692;52.164;7.558;2022-10-16T11:02:49;5.47;;;3.43;;
17153;SDS011;8692;52.164;7.558;2022-10-16T11:05:28;5.77;;;2.90;;
17153;SDS011;8692;52.164;7.558;2022-10-16T11:08:06;5.33;;;2.83;;
17153;SDS011;8692;52.164;7.558;2022-10-16T11:10:41;3.47;;;2.63;;
17153;SDS011;8692;52.164;7.558;2022-10-16T11:13:16;5.30;;;2.60;;
17153;SDS011;8692;52.164;7.558;2022-10-16T11:15:50;6.13;;;2.30;;
17153;SDS011;8692;52.164;7.558;2022-10-16T11:18:24;6.37;;;2.77;;
17153;SDS011;8692;52.164;7.558;2022-10-16T11:21:02;6.37;;;2.67;;
17153;SDS011;8692;52.164;7.558;2022-10-16T11:23:35;6.27;;;2.87;;
17153;SDS011;8692;52.164;7.558;2022-10-16T11:26:11;5.53;;;2.47;;
17153;SDS011;8692;52.164;7.558;2022-10-16T11:28:43;6.43;;;2.30;;
17153;SDS011;8692;52.164;7.558;2022-10-16T11:31:16;6.63;;;2.30;;
17153;SDS011;8692;52.164;7.558;2022-10-16T11:33:49;5.40;;;2.50;;
17153;SDS011;8692;52.164;7.558;2022-10-16T11:36:25;6.00;;;1.93;;
17153;SDS011;8692;52.164;7.558;2022-10-16T11:39:03;3.97;;;1.80;;
17153;SDS011;8692;52.164;7.558;2022-10-16T11:41:42;5.70;;;1.80;;
17153;SDS011;8692;52.164;7.558;2022-10-16T11:44:16;5.10;;;1.67;;
17153;SDS011;8692;52.164;7.558;2022-10-16T11:47:06;5.23;;;1.97;;
17153;SDS011;8692;52.164;7.558;2022-10-16T11:50:06;4.57;;;1.80;;
17153;SDS011;8692;52.164;7.558;2022-10-16T11:52:44;3.63;;;1.90;;
17153;SDS011;8692;52.164;7.558;2022-10-16T11:55:20;4.03;;;1.53;;
17153;SDS011;8692;52.164;7.558;2022-10-16T11:57:51;4.80;;;1.30;;
17153;SDS011;8692;52.164;7.558;2022-10-16T12:00:25;4.93;;;1.50;;
17153;SDS011;8692;52.164;7.558;2022-10-16T12:02:59;6.50;;;2.00;;
17153;SDS011;8692;52.164;7.558;2022-10-16T12:05:35;5.77;;;1.80;;
17153;SDS011;8692;52.164;7.558;2022-10-16T12:08:21;4.87;;;1.60;;
17153;SDS011;8692;52.164;7.558;2022-10-16T12:10:49;4.90;;;1.47;;
17153;SDS011;8692;52.164;7.558;2022-10-16T12:13:29;3.93;;;1.50;;
17153;SDS011;8692;52.164;7.558;2022-10-16T12:16:05;3.30;;;1.33;;
17153;SDS011;8692;52.164;7.558;2022-10-16T12:18:47;6.93;;;1.70;;
17153;SDS011;8692;52.164;7.558;2022-10-16T12:21:16;5.70;;;1.50;;
17153;SDS011;8692;52.164;7.558;2022-10-16T12:23:49;5.73;;;1.63;;
17153;SDS011;8692;52.164;7.558;2022-10-16T12:26:28;5.70;;;1.50;;
17153;SDS011;8692;52.164;7.558;2022-10-16T12:29:14;4.00;;;1.43;;
17153;SDS011;8692;52.164;7.558;2022-10-16T12:31:51;4.57;;;1.30;;
17153;SDS011;8692;52.164;7.558;2022-10-16T12:34:26;7.10;;;1.33;;
17153;SDS011;8692;52.164;7.558;2022-10-16T12:36:56;5.60;;;1.80;;
17153;SDS011;8692;52.164;7.558;2022-10-16T12:39:37;7.70;;;1.50;;
17153;SDS011;8692;52.164;7.558;2022-10-16T12:42:19;5.37;;;1.43;;
17153;SDS011;8692;52.164;7.558;2022-10-16T12:44:52;4.03;;;1.67;;
17153;SDS011;8692;52.164;7.558;2022-10-16T12:47:23;5.87;;;1.30;;
17153;SDS011;8692;52.164;7.558;2022-10-16T12:52:59;3.17;;;1.30;;
17153;SDS011;8692;52.164;7.558;2022-10-16T12:55:34;5.33;;;1.67;;
17153;SDS011;8692;52.164;7.558;2022-10-16T12:58:19;8.37;;;1.77;;
17153;SDS011;8692;52.164;7.558;2022-10-16T13:00:57;7.17;;;1.37;;
17153;SDS011;8692;52.164;7.558;2022-10-16T13:03:34;5.37;;;1.30;;
17153;SDS011;8692;52.164;7.558;2022-10-16T13:06:18;6.57;;;1.30;;
17153;SDS011;8692;52.164;7.558;2022-10-16T13:09:14;4.13;;;1.50;;
17153;SDS011;8692;52.164;7.558;2022-10-16T13:11:55;6.87;;;1.47;;
17153;SDS011;8692;52.164;7.558;2022-10-16T13:14:39;4.93;;;1.53;;
17153;SDS011;8692;52.164;7.558;2022-10-16T13:17:27;5.27;;;1.80;;
17153;SDS011;8692;52.164;7.558;2022-10-16T13:20:06;2.87;;;1.20;;
17153;SDS011;8692;52.164;7.558;2022-10-16T13:22:49;3.87;;;1.30;;
17153;SDS011;8692;52.164;7.558;2022-10-16T13:25:28;4.07;;;1.40;;
17153;SDS011;8692;52.164;7.558;2022-10-16T13:28:07;3.90;;;1.60;;
17153;SDS011;8692;52.164;7.558;2022-10-16T13:30:38;5.30;;;1.53;;
17153;SDS011;8692;52.164;7.558;2022-10-16T13:33:13;7.90;;;1.50;;
17153;SDS011;8692;52.164;7.558;2022-10-16T13:35:48;4.57;;;1.40;;
17153;SDS011;8692;52.164;7.558;2022-10-16T13:38:20;8.00;;;1.50;;
17153;SDS011;8692;52.164;7.558;2022-10-16T13:40:53;4.80;;;1.40;;
17153;SDS011;8692;52.164;7.558;2022-10-16T13:43:25;7.13;;;2.00;;
17153;SDS011;8692;52.164;7.558;2022-10-16T13:45:57;5.00;;;1.30;;
17153;SDS011;8692;52.164;7.558;2022-10-16T13:48:28;5.97;;;1.50;;
17153;SDS011;8692;52.164;7.558;2022-10-16T13:51:03;4.93;;;1.47;;
17153;SDS011;8692;52.164;7.558;2022-10-16T13:53:34;3.73;;;1.23;;
17153;SDS011;8692;52.164;7.558;2022-10-16T13:56:03;4.00;;;1.27;;
17153;SDS011;8692;52.164;7.558;2022-10-16T13:58:35;5.30;;;1.73;;
17153;SDS011;8692;52.164;7.558;2022-10-16T14:01:06;6.63;;;2.10;;
17153;SDS011;8692;52.164;7.558;2022-10-16T14:03:44;3.27;;;1.17;;
17153;SDS011;8692;52.164;7.558;2022-10-16T14:06:17;5.73;;;1.77;;
17153;SDS011;8692;52.164;7.558;2022-10-16T14:08:50;7.50;;;1.83;;
17153;SDS011;8692;52.164;7.558;2022-10-16T14:11:25;5.23;;;1.40;;
17153;SDS011;8692;52.164;7.558;2022-10-16T14:13:56;3.83;;;1.30;;
17153;SDS011;8692;52.164;7.558;2022-10-16T14:16:25;3.10;;;1.13;;
17153;SDS011;8692;52.164;7.558;2022-10-16T14:18:59;8.83;;;1.50;;
17153;SDS011;8692;52.164;7.558;2022-10-16T14:21:32;7.70;;;1.70;;
17153;SDS011;8692;52.164;7.558;2022-10-16T14:24:10;2.67;;;1.17;;
17153;SDS011;8692;52.164;7.558;2022-10-16T14:26:41;4.93;;;1.27;;
17153;SDS011;8692;52.164;7.558;2022-10-16T14:32:20;5.53;;;1.40;;
17153;SDS011;8692;52.164;7.558;2022-10-16T14:34:52;2.57;;;0.93;;
17153;SDS011;8692;52.164;7.558;2022-10-16T14:37:22;5.10;;;1.57;;
17153;SDS011;8692;52.164;7.558;2022-10-16T14:39:55;6.53;;;1.77;;
17153;SDS011;8692;52.164;7.558;2022-10-16T14:42:26;4.07;;;1.03;;
17153;SDS011;8692;52.164;7.558;2022-10-16T14:44:59;5.60;;;1.37;;
17153;SDS011;8692;52.164;7.558;2022-10-16T14:47:29;7.17;;;1.70;;
17153;SDS011;8692;52.164;7.558;2022-10-16T14:49:58;4.37;;;1.80;;
17153;SDS011;8692;52.164;7.558;2022-10-16T14:52:29;4.33;;;1.27;;
17153;SDS011;8692;52.164;7.558;2022-10-16T14:54:57;6.77;;;1.27;;
17153;SDS011;8692;52.164;7.558;2022-10-16T14:57:26;1.73;;;0.97;;
17153;SDS011;8692;52.164;7.558;2022-10-16T15:00:02;2.93;;;1.10;;
17153;SDS011;8692;52.164;7.558;2022-10-16T15:02:34;1.93;;;1.00;;
17153;SDS011;8692;52.164;7.558;2022-10-16T15:05:09;2.40;;;1.10;;
17153;SDS011;8692;52.164;7.558;2022-10-16T15:07:42;2.83;;;1.17;;
17153;SDS011;8692;52.164;7.558;2022-10-16T15:10:10;6.47;;;1.30;;
17153;SDS011;8692;52.164;7.558;2022-10-16T15:12:40;3.33;;;1.20;;
17153;SDS011;8692;52.164;7.558;2022-10-16T15:15:20;3.53;;;1.20;;
17153;SDS011;8692;52.164;7.558;2022-10-16T15:17:53;5.07;;;1.60;;
17153;SDS011;8692;52.164;7.558;2022-10-16T15:20:23;3.37;;;1.00;;
17153;SDS011;8692;52.164;7.558;2022-10-16T15:22:52;3.23;;;1.20;;
17153;SDS011;8692;52.164;7.558;2022-10-16T15:28:06;3.57;;;1.77;;
17153;SDS011;8692;52.164;7.558;2022-10-16T15:30:35;4.43;;;1.57;;
17153;SDS011;8692;52.164;7.558;2022-10-16T15:33:05;3.20;;;1.20;;
17153;SDS011;8692;52.164;7.558;2022-10-16T15:35:38;4.13;;;1.20;;
17153;SDS011;8692;52.164;7.558;2022-10-16T15:38:08;3.70;;;1.60;;
17153;SDS011;8692;52.164;7.558;2022-10-16T15:40:38;2.03;;;1.13;;
17153;SDS011;8692;52.164;7.558;2022-10-16T15:43:07;3.50;;;1.70;;
17153;SDS011;8692;52.164;7.558;2022-10-16T15:45:38;2.97;;;1.47;;
17153;SDS011;8692;52.164;7.558;2022-10-16T15:48:08;2.17;;;1.50;;